sensor_id;sensor_type;location;lat;lon;timestamp;P1;durP1;ratioP1;P2;durP2;ratioP2
48685;SDS011;34485;51.536;3.816;2023-11-22T00:00:10;17.07;;;10.03;;
48685;SDS011;34485;51.536;3.816;2023-11-22T00:02:37;17.38;;;10.77;;
48685;SDS011;34485;51.536;3.816;2023-11-22T00:05:03;15.30;;;10.75;;
48685;SDS011;34485;51.536;3.816;2023-11-22T00:07:30;18.20;;;10.73;;
48685;SDS011;34485;51.536;3.816;2023-11-22T00:09:59;15.98;;;10.95;;
48685;SDS011;34485;51.536;3.816;2023-11-22T00:12:26;20.15;;;11.85;;
48685;SDS011;34485;51.536;3.816;2023-11-22T00:14:53;16.77;;;10.60;;
48685;SDS011;34485;51.536;3.816;2023-11-22T00:17:19;21.30;;;10.90;;
48685;SDS011;34485;51.536;3.816;2023-11-22T00:22:10;16.33;;;10.03;;
48685;SDS011;34485;51.536;3.816;2023-11-22T00:24:42;14.85;;;9.82;;
48685;SDS011;34485;51.536;3.816;2023-11-22T00:27:10;13.73;;;9.55;;
48685;SDS011;34485;51.536;3.816;2023-11-22T00:29:40;21.98;;;10.40;;
48685;SDS011;34485;51.536;3.816;2023-11-22T00:32:06;15.10;;;9.43;;
48685;SDS011;34485;51.536;3.816;2023-11-22T00:34:32;14.00;;;9.68;;
48685;SDS011;34485;51.536;3.816;2023-11-22T00:36:58;13.57;;;9.60;;
48685;SDS011;34485;51.536;3.816;2023-11-22T00:39:23;16.45;;;9.90;;
48685;SDS011;34485;51.536;3.816;2023-11-22T00:41:49;15.70;;;9.67;;
48685;SDS011;34485;51.536;3.816;2023-11-22T00:44:15;13.10;;;9.20;;
48685;SDS011;34485;51.536;3.816;2023-11-22T00:46:40;12.63;;;8.93;;
48685;SDS011;34485;51.536;3.816;2023-11-22T00:49:07;13.25;;;8.35;;
48685;SDS011;34485;51.536;3.816;2023-11-22T00:51:35;14.32;;;9.35;;
48685;SDS011;34485;51.536;3.816;2023-11-22T00:54:01;14.40;;;9.80;;
48685;SDS011;34485;51.536;3.816;2023-11-22T00:56:27;16.65;;;10.07;;
48685;SDS011;34485;51.536;3.816;2023-11-22T00:58:53;13.10;;;8.93;;
48685;SDS011;34485;51.536;3.816;2023-11-22T01:01:21;15.90;;;9.07;;
48685;SDS011;34485;51.536;3.816;2023-11-22T01:06:13;12.53;;;9.17;;
48685;SDS011;34485;51.536;3.816;2023-11-22T01:08:39;16.65;;;9.35;;
48685;SDS011;34485;51.536;3.816;2023-11-22T01:11:04;19.40;;;9.63;;
48685;SDS011;34485;51.536;3.816;2023-11-22T01:13:33;15.13;;;9.98;;
48685;SDS011;34485;51.536;3.816;2023-11-22T01:16:05;20.00;;;10.55;;
48685;SDS011;34485;51.536;3.816;2023-11-22T01:18:35;16.85;;;8.77;;
48685;SDS011;34485;51.536;3.816;2023-11-22T01:21:03;12.60;;;9.90;;
48685;SDS011;34485;51.536;3.816;2023-11-22T01:23:30;15.85;;;10.55;;
48685;SDS011;34485;51.536;3.816;2023-11-22T01:25:56;13.07;;;9.65;;
48685;SDS011;34485;51.536;3.816;2023-11-22T01:28:23;15.90;;;9.75;;
48685;SDS011;34485;51.536;3.816;2023-11-22T01:33:18;18.25;;;8.88;;
48685;SDS011;34485;51.536;3.816;2023-11-22T01:35:44;15.27;;;9.13;;
48685;SDS011;34485;51.536;3.816;2023-11-22T01:38:10;15.82;;;9.32;;
48685;SDS011;34485;51.536;3.816;2023-11-22T01:43:05;15.80;;;9.40;;
48685;SDS011;34485;51.536;3.816;2023-11-22T01:45:30;17.65;;;9.85;;
48685;SDS011;34485;51.536;3.816;2023-11-22T01:47:57;15.38;;;9.68;;
48685;SDS011;34485;51.536;3.816;2023-11-22T01:50:22;11.37;;;7.87;;
48685;SDS011;34485;51.536;3.816;2023-11-22T01:52:48;19.67;;;10.75;;
48685;SDS011;34485;51.536;3.816;2023-11-22T01:55:14;12.97;;;9.27;;
48685;SDS011;34485;51.536;3.816;2023-11-22T01:57:41;17.20;;;9.18;;
48685;SDS011;34485;51.536;3.816;2023-11-22T02:00:07;18.08;;;10.80;;
48685;SDS011;34485;51.536;3.816;2023-11-22T02:02:33;16.43;;;9.37;;
48685;SDS011;34485;51.536;3.816;2023-11-22T02:05:00;18.48;;;9.43;;
48685;SDS011;34485;51.536;3.816;2023-11-22T02:07:29;18.35;;;10.90;;
48685;SDS011;34485;51.536;3.816;2023-11-22T02:09:56;15.95;;;10.18;;
48685;SDS011;34485;51.536;3.816;2023-11-22T02:12:22;17.33;;;10.82;;
48685;SDS011;34485;51.536;3.816;2023-11-22T02:14:48;14.47;;;9.97;;
48685;SDS011;34485;51.536;3.816;2023-11-22T02:17:15;15.13;;;9.88;;
48685;SDS011;34485;51.536;3.816;2023-11-22T02:19:42;15.23;;;10.38;;
48685;SDS011;34485;51.536;3.816;2023-11-22T02:22:08;15.57;;;9.77;;
48685;SDS011;34485;51.536;3.816;2023-11-22T02:24:34;17.15;;;10.18;;
48685;SDS011;34485;51.536;3.816;2023-11-22T02:27:00;13.10;;;8.37;;
48685;SDS011;34485;51.536;3.816;2023-11-22T02:29:26;13.02;;;9.00;;
48685;SDS011;34485;51.536;3.816;2023-11-22T02:34:22;14.63;;;9.15;;
48685;SDS011;34485;51.536;3.816;2023-11-22T02:36:48;18.30;;;9.85;;
48685;SDS011;34485;51.536;3.816;2023-11-22T02:39:15;17.03;;;11.13;;
48685;SDS011;34485;51.536;3.816;2023-11-22T02:41:41;15.18;;;9.65;;
48685;SDS011;34485;51.536;3.816;2023-11-22T02:44:07;16.40;;;10.43;;
48685;SDS011;34485;51.536;3.816;2023-11-22T02:46:33;14.95;;;9.88;;
48685;SDS011;34485;51.536;3.816;2023-11-22T02:48:59;18.55;;;10.88;;
48685;SDS011;34485;51.536;3.816;2023-11-22T02:51:25;16.47;;;9.97;;
48685;SDS011;34485;51.536;3.816;2023-11-22T02:56:21;16.30;;;9.70;;
48685;SDS011;34485;51.536;3.816;2023-11-22T02:58:47;16.17;;;10.50;;
48685;SDS011;34485;51.536;3.816;2023-11-22T03:01:13;19.48;;;10.10;;
48685;SDS011;34485;51.536;3.816;2023-11-22T03:03:39;14.70;;;9.37;;
48685;SDS011;34485;51.536;3.816;2023-11-22T03:06:08;18.52;;;11.48;;
48685;SDS011;34485;51.536;3.816;2023-11-22T03:08:35;17.23;;;11.43;;
48685;SDS011;34485;51.536;3.816;2023-11-22T03:11:01;15.95;;;10.45;;
48685;SDS011;34485;51.536;3.816;2023-11-22T03:13:27;19.83;;;11.52;;
48685;SDS011;34485;51.536;3.816;2023-11-22T03:18:20;17.25;;;10.05;;
48685;SDS011;34485;51.536;3.816;2023-11-22T03:20:46;16.65;;;10.65;;
48685;SDS011;34485;51.536;3.816;2023-11-22T03:23:12;19.88;;;11.82;;
48685;SDS011;34485;51.536;3.816;2023-11-22T03:28:11;17.97;;;10.37;;
48685;SDS011;34485;51.536;3.816;2023-11-22T03:30:37;16.85;;;11.05;;
48685;SDS011;34485;51.536;3.816;2023-11-22T03:33:04;15.38;;;11.35;;
48685;SDS011;34485;51.536;3.816;2023-11-22T03:35:30;13.57;;;9.02;;
48685;SDS011;34485;51.536;3.816;2023-11-22T03:37:56;15.50;;;9.57;;
48685;SDS011;34485;51.536;3.816;2023-11-22T03:40:22;15.33;;;9.40;;
48685;SDS011;34485;51.536;3.816;2023-11-22T03:42:48;14.60;;;9.23;;
48685;SDS011;34485;51.536;3.816;2023-11-22T03:45:14;16.88;;;10.63;;
48685;SDS011;34485;51.536;3.816;2023-11-22T03:47:40;14.90;;;10.10;;
48685;SDS011;34485;51.536;3.816;2023-11-22T03:50:07;18.35;;;11.45;;
48685;SDS011;34485;51.536;3.816;2023-11-22T03:52:33;17.50;;;11.17;;
48685;SDS011;34485;51.536;3.816;2023-11-22T03:54:59;18.67;;;10.10;;
48685;SDS011;34485;51.536;3.816;2023-11-22T03:57:25;19.92;;;11.55;;
48685;SDS011;34485;51.536;3.816;2023-11-22T03:59:51;17.48;;;10.38;;
48685;SDS011;34485;51.536;3.816;2023-11-22T04:02:17;21.13;;;11.60;;
48685;SDS011;34485;51.536;3.816;2023-11-22T04:04:43;14.73;;;10.30;;
48685;SDS011;34485;51.536;3.816;2023-11-22T04:07:10;18.45;;;10.30;;
48685;SDS011;34485;51.536;3.816;2023-11-22T04:09:36;18.27;;;10.23;;
48685;SDS011;34485;51.536;3.816;2023-11-22T04:12:03;22.85;;;10.60;;
48685;SDS011;34485;51.536;3.816;2023-11-22T04:14:29;19.73;;;11.48;;
48685;SDS011;34485;51.536;3.816;2023-11-22T04:16:55;20.27;;;11.57;;
48685;SDS011;34485;51.536;3.816;2023-11-22T04:19:21;22.85;;;11.75;;
48685;SDS011;34485;51.536;3.816;2023-11-22T04:21:47;22.70;;;11.65;;
48685;SDS011;34485;51.536;3.816;2023-11-22T04:24:13;20.85;;;12.00;;
48685;SDS011;34485;51.536;3.816;2023-11-22T04:26:39;20.40;;;11.73;;
48685;SDS011;34485;51.536;3.816;2023-11-22T04:31:33;23.75;;;12.73;;
48685;SDS011;34485;51.536;3.816;2023-11-22T04:33:59;26.02;;;13.35;;
48685;SDS011;34485;51.536;3.816;2023-11-22T04:36:25;19.30;;;11.70;;
48685;SDS011;34485;51.536;3.816;2023-11-22T04:38:51;22.30;;;12.80;;
48685;SDS011;34485;51.536;3.816;2023-11-22T04:41:17;24.20;;;12.60;;
48685;SDS011;34485;51.536;3.816;2023-11-22T04:43:43;23.27;;;12.75;;
48685;SDS011;34485;51.536;3.816;2023-11-22T04:46:09;24.00;;;12.03;;
48685;SDS011;34485;51.536;3.816;2023-11-22T04:48:35;27.08;;;12.32;;
48685;SDS011;34485;51.536;3.816;2023-11-22T04:51:02;25.27;;;13.90;;
48685;SDS011;34485;51.536;3.816;2023-11-22T04:53:27;22.20;;;13.13;;
48685;SDS011;34485;51.536;3.816;2023-11-22T04:55:53;20.25;;;11.20;;
48685;SDS011;34485;51.536;3.816;2023-11-22T04:58:19;28.90;;;13.45;;
48685;SDS011;34485;51.536;3.816;2023-11-22T05:00:46;23.53;;;12.70;;
48685;SDS011;34485;51.536;3.816;2023-11-22T05:03:12;23.77;;;12.30;;
48685;SDS011;34485;51.536;3.816;2023-11-22T05:05:38;24.33;;;11.85;;
48685;SDS011;34485;51.536;3.816;2023-11-22T05:08:04;20.55;;;12.35;;
48685;SDS011;34485;51.536;3.816;2023-11-22T05:10:30;24.00;;;13.47;;
48685;SDS011;34485;51.536;3.816;2023-11-22T05:12:56;22.17;;;11.60;;
48685;SDS011;34485;51.536;3.816;2023-11-22T05:15:24;21.80;;;12.75;;
48685;SDS011;34485;51.536;3.816;2023-11-22T05:17:50;19.75;;;11.75;;
48685;SDS011;34485;51.536;3.816;2023-11-22T05:20:16;25.92;;;12.30;;
48685;SDS011;34485;51.536;3.816;2023-11-22T05:22:42;19.80;;;12.15;;
48685;SDS011;34485;51.536;3.816;2023-11-22T05:25:08;15.93;;;10.73;;
48685;SDS011;34485;51.536;3.816;2023-11-22T05:27:36;17.55;;;10.73;;
48685;SDS011;34485;51.536;3.816;2023-11-22T05:32:30;17.75;;;11.40;;
48685;SDS011;34485;51.536;3.816;2023-11-22T05:34:56;16.43;;;9.70;;
48685;SDS011;34485;51.536;3.816;2023-11-22T05:37:22;20.33;;;10.25;;
48685;SDS011;34485;51.536;3.816;2023-11-22T05:39:48;18.08;;;11.38;;
48685;SDS011;34485;51.536;3.816;2023-11-22T05:42:15;20.80;;;12.43;;
48685;SDS011;34485;51.536;3.816;2023-11-22T05:44:41;15.18;;;11.10;;
48685;SDS011;34485;51.536;3.816;2023-11-22T05:47:07;16.08;;;10.07;;
48685;SDS011;34485;51.536;3.816;2023-11-22T05:52:02;18.05;;;11.63;;
48685;SDS011;34485;51.536;3.816;2023-11-22T05:54:29;16.40;;;11.30;;
48685;SDS011;34485;51.536;3.816;2023-11-22T05:56:56;21.13;;;12.40;;
48685;SDS011;34485;51.536;3.816;2023-11-22T05:59:22;16.20;;;10.57;;
48685;SDS011;34485;51.536;3.816;2023-11-22T06:01:49;15.52;;;10.85;;
48685;SDS011;34485;51.536;3.816;2023-11-22T06:04:15;17.02;;;10.80;;
48685;SDS011;34485;51.536;3.816;2023-11-22T06:06:41;18.98;;;11.27;;
48685;SDS011;34485;51.536;3.816;2023-11-22T06:09:07;15.05;;;8.65;;
48685;SDS011;34485;51.536;3.816;2023-11-22T06:11:35;20.13;;;11.70;;
48685;SDS011;34485;51.536;3.816;2023-11-22T06:14:01;14.52;;;11.00;;
48685;SDS011;34485;51.536;3.816;2023-11-22T06:16:27;15.65;;;10.10;;
48685;SDS011;34485;51.536;3.816;2023-11-22T06:18:53;12.93;;;9.13;;
48685;SDS011;34485;51.536;3.816;2023-11-22T06:21:19;14.80;;;10.23;;
48685;SDS011;34485;51.536;3.816;2023-11-22T06:23:45;14.60;;;10.18;;
48685;SDS011;34485;51.536;3.816;2023-11-22T06:26:11;16.35;;;10.85;;
48685;SDS011;34485;51.536;3.816;2023-11-22T06:28:37;18.42;;;11.82;;
48685;SDS011;34485;51.536;3.816;2023-11-22T06:31:03;14.63;;;10.27;;
48685;SDS011;34485;51.536;3.816;2023-11-22T06:33:30;17.38;;;11.15;;
48685;SDS011;34485;51.536;3.816;2023-11-22T06:35:56;19.77;;;11.93;;
48685;SDS011;34485;51.536;3.816;2023-11-22T06:38:22;18.13;;;10.75;;
48685;SDS011;34485;51.536;3.816;2023-11-22T06:40:48;18.73;;;10.57;;
48685;SDS011;34485;51.536;3.816;2023-11-22T06:43:14;16.50;;;11.10;;
48685;SDS011;34485;51.536;3.816;2023-11-22T06:45:40;19.02;;;10.68;;
48685;SDS011;34485;51.536;3.816;2023-11-22T06:48:06;18.90;;;10.63;;
48685;SDS011;34485;51.536;3.816;2023-11-22T06:50:32;23.95;;;11.07;;
48685;SDS011;34485;51.536;3.816;2023-11-22T06:52:58;16.92;;;10.18;;
48685;SDS011;34485;51.536;3.816;2023-11-22T06:55:24;17.15;;;11.43;;
48685;SDS011;34485;51.536;3.816;2023-11-22T06:57:52;19.58;;;10.27;;
48685;SDS011;34485;51.536;3.816;2023-11-22T07:00:19;19.58;;;12.13;;
48685;SDS011;34485;51.536;3.816;2023-11-22T07:02:45;16.55;;;10.75;;
48685;SDS011;34485;51.536;3.816;2023-11-22T07:05:11;19.85;;;11.98;;
48685;SDS011;34485;51.536;3.816;2023-11-22T07:07:37;20.48;;;12.30;;
48685;SDS011;34485;51.536;3.816;2023-11-22T07:10:04;16.73;;;11.07;;
48685;SDS011;34485;51.536;3.816;2023-11-22T07:12:33;18.52;;;12.35;;
48685;SDS011;34485;51.536;3.816;2023-11-22T07:14:59;17.10;;;11.45;;
48685;SDS011;34485;51.536;3.816;2023-11-22T07:17:25;18.27;;;11.10;;
48685;SDS011;34485;51.536;3.816;2023-11-22T07:19:53;28.50;;;12.52;;
48685;SDS011;34485;51.536;3.816;2023-11-22T07:22:20;17.50;;;11.13;;
48685;SDS011;34485;51.536;3.816;2023-11-22T07:24:47;24.48;;;12.40;;
48685;SDS011;34485;51.536;3.816;2023-11-22T07:27:16;21.92;;;12.98;;
48685;SDS011;34485;51.536;3.816;2023-11-22T07:29:44;19.92;;;12.85;;
48685;SDS011;34485;51.536;3.816;2023-11-22T07:32:10;25.08;;;12.90;;
48685;SDS011;34485;51.536;3.816;2023-11-22T07:34:38;24.30;;;11.98;;
48685;SDS011;34485;51.536;3.816;2023-11-22T07:39:34;22.85;;;12.93;;
48685;SDS011;34485;51.536;3.816;2023-11-22T07:42:16;17.90;;;12.05;;
48685;SDS011;34485;51.536;3.816;2023-11-22T07:44:43;19.00;;;10.85;;
48685;SDS011;34485;51.536;3.816;2023-11-22T07:47:09;18.48;;;11.18;;
48685;SDS011;34485;51.536;3.816;2023-11-22T07:49:38;19.05;;;11.77;;
48685;SDS011;34485;51.536;3.816;2023-11-22T07:52:04;17.55;;;9.88;;
48685;SDS011;34485;51.536;3.816;2023-11-22T07:54:31;15.77;;;10.00;;
48685;SDS011;34485;51.536;3.816;2023-11-22T07:56:57;19.00;;;10.80;;
48685;SDS011;34485;51.536;3.816;2023-11-22T07:59:23;18.20;;;11.50;;
48685;SDS011;34485;51.536;3.816;2023-11-22T08:01:50;19.38;;;11.00;;
48685;SDS011;34485;51.536;3.816;2023-11-22T08:04:18;17.48;;;10.68;;
48685;SDS011;34485;51.536;3.816;2023-11-22T08:06:44;17.20;;;11.25;;
48685;SDS011;34485;51.536;3.816;2023-11-22T08:09:10;18.75;;;11.70;;
48685;SDS011;34485;51.536;3.816;2023-11-22T08:11:36;18.42;;;11.88;;
48685;SDS011;34485;51.536;3.816;2023-11-22T08:14:02;17.47;;;11.67;;
48685;SDS011;34485;51.536;3.816;2023-11-22T08:16:29;19.27;;;10.80;;
48685;SDS011;34485;51.536;3.816;2023-11-22T08:18:55;15.52;;;10.23;;
48685;SDS011;34485;51.536;3.816;2023-11-22T08:21:21;21.38;;;12.48;;
48685;SDS011;34485;51.536;3.816;2023-11-22T08:23:48;15.07;;;11.05;;
48685;SDS011;34485;51.536;3.816;2023-11-22T08:26:14;17.13;;;11.23;;
48685;SDS011;34485;51.536;3.816;2023-11-22T08:28:40;12.50;;;9.57;;
48685;SDS011;34485;51.536;3.816;2023-11-22T08:31:06;19.25;;;12.57;;
48685;SDS011;34485;51.536;3.816;2023-11-22T08:33:36;18.88;;;10.63;;
48685;SDS011;34485;51.536;3.816;2023-11-22T08:36:02;18.50;;;11.55;;
48685;SDS011;34485;51.536;3.816;2023-11-22T08:38:29;19.30;;;12.20;;
48685;SDS011;34485;51.536;3.816;2023-11-22T08:40:58;23.00;;;13.55;;
48685;SDS011;34485;51.536;3.816;2023-11-22T08:43:25;23.20;;;13.20;;
48685;SDS011;34485;51.536;3.816;2023-11-22T08:45:51;22.58;;;15.23;;
48685;SDS011;34485;51.536;3.816;2023-11-22T08:48:17;21.48;;;13.45;;
48685;SDS011;34485;51.536;3.816;2023-11-22T08:50:44;25.53;;;13.23;;
48685;SDS011;34485;51.536;3.816;2023-11-22T08:53:12;23.10;;;14.85;;
48685;SDS011;34485;51.536;3.816;2023-11-22T08:55:38;27.45;;;14.63;;
48685;SDS011;34485;51.536;3.816;2023-11-22T08:58:04;23.70;;;14.10;;
48685;SDS011;34485;51.536;3.816;2023-11-22T09:00:30;24.38;;;14.35;;
48685;SDS011;34485;51.536;3.816;2023-11-22T09:02:57;27.27;;;14.27;;
48685;SDS011;34485;51.536;3.816;2023-11-22T09:05:23;23.73;;;13.90;;
48685;SDS011;34485;51.536;3.816;2023-11-22T09:07:48;28.60;;;14.57;;
48685;SDS011;34485;51.536;3.816;2023-11-22T09:10:16;24.98;;;14.77;;
48685;SDS011;34485;51.536;3.816;2023-11-22T09:12:43;23.42;;;14.98;;
48685;SDS011;34485;51.536;3.816;2023-11-22T09:15:10;31.23;;;16.23;;
48685;SDS011;34485;51.536;3.816;2023-11-22T09:17:38;27.75;;;16.95;;
48685;SDS011;34485;51.536;3.816;2023-11-22T09:20:08;32.47;;;18.20;;
48685;SDS011;34485;51.536;3.816;2023-11-22T09:22:36;24.52;;;15.85;;
48685;SDS011;34485;51.536;3.816;2023-11-22T09:25:04;31.58;;;16.33;;
48685;SDS011;34485;51.536;3.816;2023-11-22T09:27:34;26.20;;;15.55;;
48685;SDS011;34485;51.536;3.816;2023-11-22T09:30:02;27.45;;;15.93;;
48685;SDS011;34485;51.536;3.816;2023-11-22T09:32:28;26.47;;;15.47;;
48685;SDS011;34485;51.536;3.816;2023-11-22T09:34:54;24.08;;;14.85;;
48685;SDS011;34485;51.536;3.816;2023-11-22T09:37:23;24.48;;;15.93;;
48685;SDS011;34485;51.536;3.816;2023-11-22T09:39:50;23.95;;;14.07;;
48685;SDS011;34485;51.536;3.816;2023-11-22T09:42:16;24.20;;;14.55;;
48685;SDS011;34485;51.536;3.816;2023-11-22T09:44:42;21.47;;;13.63;;
48685;SDS011;34485;51.536;3.816;2023-11-22T09:47:08;27.80;;;13.73;;
48685;SDS011;34485;51.536;3.816;2023-11-22T09:49:35;22.48;;;14.38;;
48685;SDS011;34485;51.536;3.816;2023-11-22T09:52:02;19.65;;;13.43;;
48685;SDS011;34485;51.536;3.816;2023-11-22T09:54:29;19.42;;;13.77;;
48685;SDS011;34485;51.536;3.816;2023-11-22T09:56:56;21.37;;;13.97;;
48685;SDS011;34485;51.536;3.816;2023-11-22T09:59:22;21.00;;;12.68;;
48685;SDS011;34485;51.536;3.816;2023-11-22T10:01:49;19.95;;;13.48;;
48685;SDS011;34485;51.536;3.816;2023-11-22T10:04:17;23.25;;;14.18;;
48685;SDS011;34485;51.536;3.816;2023-11-22T10:06:43;23.98;;;14.70;;
48685;SDS011;34485;51.536;3.816;2023-11-22T10:09:11;24.50;;;13.37;;
48685;SDS011;34485;51.536;3.816;2023-11-22T10:11:39;23.65;;;14.15;;
48685;SDS011;34485;51.536;3.816;2023-11-22T10:14:08;20.25;;;13.30;;
48685;SDS011;34485;51.536;3.816;2023-11-22T10:16:34;20.40;;;13.20;;
48685;SDS011;34485;51.536;3.816;2023-11-22T10:19:00;23.30;;;14.10;;
48685;SDS011;34485;51.536;3.816;2023-11-22T10:21:28;20.53;;;14.17;;
48685;SDS011;34485;51.536;3.816;2023-11-22T10:24:00;22.63;;;13.80;;
48685;SDS011;34485;51.536;3.816;2023-11-22T10:26:27;17.98;;;13.18;;
48685;SDS011;34485;51.536;3.816;2023-11-22T10:28:54;16.52;;;12.50;;
48685;SDS011;34485;51.536;3.816;2023-11-22T10:31:21;20.70;;;14.13;;
48685;SDS011;34485;51.536;3.816;2023-11-22T10:33:48;21.83;;;13.97;;
48685;SDS011;34485;51.536;3.816;2023-11-22T10:36:14;22.52;;;13.68;;
48685;SDS011;34485;51.536;3.816;2023-11-22T10:38:41;22.40;;;13.80;;
48685;SDS011;34485;51.536;3.816;2023-11-22T10:41:11;21.67;;;14.80;;
48685;SDS011;34485;51.536;3.816;2023-11-22T10:43:38;20.95;;;14.25;;
48685;SDS011;34485;51.536;3.816;2023-11-22T10:46:06;26.30;;;15.03;;
48685;SDS011;34485;51.536;3.816;2023-11-22T10:48:35;24.40;;;14.93;;
48685;SDS011;34485;51.536;3.816;2023-11-22T10:51:01;22.73;;;14.07;;
48685;SDS011;34485;51.536;3.816;2023-11-22T10:53:36;24.70;;;13.68;;
48685;SDS011;34485;51.536;3.816;2023-11-22T10:56:07;27.77;;;15.17;;
48685;SDS011;34485;51.536;3.816;2023-11-22T10:58:39;23.48;;;13.60;;
48685;SDS011;34485;51.536;3.816;2023-11-22T11:01:17;24.17;;;14.60;;
48685;SDS011;34485;51.536;3.816;2023-11-22T11:04:18;19.77;;;12.10;;
48685;SDS011;34485;51.536;3.816;2023-11-22T11:06:42;21.25;;;13.05;;
48685;SDS011;34485;51.536;3.816;2023-11-22T11:09:11;19.17;;;11.50;;
48685;SDS011;34485;51.536;3.816;2023-11-22T11:11:40;17.85;;;10.85;;
48685;SDS011;34485;51.536;3.816;2023-11-22T11:14:07;16.65;;;11.82;;
48685;SDS011;34485;51.536;3.816;2023-11-22T11:16:35;21.90;;;12.30;;
48685;SDS011;34485;51.536;3.816;2023-11-22T11:19:04;21.38;;;13.05;;
48685;SDS011;34485;51.536;3.816;2023-11-22T11:21:32;26.37;;;15.20;;
48685;SDS011;34485;51.536;3.816;2023-11-22T11:23:58;21.33;;;13.27;;
48685;SDS011;34485;51.536;3.816;2023-11-22T11:26:28;23.48;;;13.70;;
48685;SDS011;34485;51.536;3.816;2023-11-22T11:28:57;23.50;;;13.93;;
48685;SDS011;34485;51.536;3.816;2023-11-22T11:31:23;25.70;;;14.17;;
48685;SDS011;34485;51.536;3.816;2023-11-22T11:36:27;22.40;;;12.30;;
48685;SDS011;34485;51.536;3.816;2023-11-22T11:39:15;15.93;;;11.93;;
48685;SDS011;34485;51.536;3.816;2023-11-22T11:41:40;19.90;;;12.23;;
48685;SDS011;34485;51.536;3.816;2023-11-22T11:44:07;18.08;;;11.35;;
48685;SDS011;34485;51.536;3.816;2023-11-22T11:46:34;18.23;;;11.98;;
48685;SDS011;34485;51.536;3.816;2023-11-22T11:49:02;15.85;;;11.90;;
48685;SDS011;34485;51.536;3.816;2023-11-22T11:51:33;15.73;;;10.98;;
48685;SDS011;34485;51.536;3.816;2023-11-22T11:53:58;17.83;;;12.27;;
48685;SDS011;34485;51.536;3.816;2023-11-22T11:56:24;20.00;;;11.90;;
48685;SDS011;34485;51.536;3.816;2023-11-22T11:58:51;19.40;;;13.02;;
48685;SDS011;34485;51.536;3.816;2023-11-22T12:01:22;18.60;;;13.03;;
48685;SDS011;34485;51.536;3.816;2023-11-22T12:03:48;17.27;;;12.13;;
48685;SDS011;34485;51.536;3.816;2023-11-22T12:06:14;20.20;;;12.40;;
48685;SDS011;34485;51.536;3.816;2023-11-22T12:08:41;18.20;;;11.23;;
48685;SDS011;34485;51.536;3.816;2023-11-22T12:11:07;17.90;;;12.18;;
48685;SDS011;34485;51.536;3.816;2023-11-22T12:13:34;19.38;;;12.82;;
48685;SDS011;34485;51.536;3.816;2023-11-22T12:16:03;21.52;;;12.38;;
48685;SDS011;34485;51.536;3.816;2023-11-22T12:18:39;19.60;;;12.43;;
48685;SDS011;34485;51.536;3.816;2023-11-22T12:21:15;16.00;;;11.18;;
48685;SDS011;34485;51.536;3.816;2023-11-22T12:23:41;21.27;;;11.27;;
48685;SDS011;34485;51.536;3.816;2023-11-22T12:26:11;17.63;;;10.98;;
48685;SDS011;34485;51.536;3.816;2023-11-22T12:28:38;18.00;;;11.25;;
48685;SDS011;34485;51.536;3.816;2023-11-22T12:31:13;18.30;;;12.07;;
48685;SDS011;34485;51.536;3.816;2023-11-22T12:33:40;17.60;;;11.38;;
48685;SDS011;34485;51.536;3.816;2023-11-22T12:36:07;17.33;;;11.30;;
48685;SDS011;34485;51.536;3.816;2023-11-22T12:38:43;19.40;;;10.65;;
48685;SDS011;34485;51.536;3.816;2023-11-22T12:41:08;19.20;;;11.50;;
48685;SDS011;34485;51.536;3.816;2023-11-22T12:43:34;17.40;;;11.48;;
48685;SDS011;34485;51.536;3.816;2023-11-22T12:46:04;19.38;;;11.15;;
48685;SDS011;34485;51.536;3.816;2023-11-22T12:48:40;15.77;;;11.60;;
48685;SDS011;34485;51.536;3.816;2023-11-22T12:51:16;15.63;;;11.55;;
48685;SDS011;34485;51.536;3.816;2023-11-22T12:53:42;17.23;;;11.50;;
48685;SDS011;34485;51.536;3.816;2023-11-22T12:56:11;13.95;;;10.32;;
48685;SDS011;34485;51.536;3.816;2023-11-22T12:58:37;16.40;;;11.40;;
48685;SDS011;34485;51.536;3.816;2023-11-22T13:01:02;18.95;;;10.90;;
48685;SDS011;34485;51.536;3.816;2023-11-22T13:03:28;15.40;;;8.57;;
48685;SDS011;34485;51.536;3.816;2023-11-22T13:05:54;12.80;;;9.55;;
48685;SDS011;34485;51.536;3.816;2023-11-22T13:08:20;11.25;;;8.43;;
48685;SDS011;34485;51.536;3.816;2023-11-22T13:10:54;12.68;;;9.10;;
48685;SDS011;34485;51.536;3.816;2023-11-22T13:13:20;17.63;;;9.90;;
48685;SDS011;34485;51.536;3.816;2023-11-22T13:15:46;14.48;;;9.82;;
48685;SDS011;34485;51.536;3.816;2023-11-22T13:18:14;16.60;;;10.60;;
48685;SDS011;34485;51.536;3.816;2023-11-22T13:20:41;14.70;;;9.40;;
48685;SDS011;34485;51.536;3.816;2023-11-22T13:23:08;11.43;;;8.57;;
48685;SDS011;34485;51.536;3.816;2023-11-22T13:25:34;13.17;;;8.93;;
48685;SDS011;34485;51.536;3.816;2023-11-22T13:27:59;15.32;;;9.70;;
48685;SDS011;34485;51.536;3.816;2023-11-22T13:30:25;15.32;;;10.35;;
48685;SDS011;34485;51.536;3.816;2023-11-22T13:32:52;11.57;;;8.30;;
48685;SDS011;34485;51.536;3.816;2023-11-22T13:35:19;14.20;;;9.52;;
48685;SDS011;34485;51.536;3.816;2023-11-22T13:37:47;15.57;;;10.20;;
48685;SDS011;34485;51.536;3.816;2023-11-22T13:40:13;14.82;;;9.65;;
48685;SDS011;34485;51.536;3.816;2023-11-22T13:42:47;13.57;;;8.65;;
48685;SDS011;34485;51.536;3.816;2023-11-22T13:45:15;14.93;;;9.87;;
48685;SDS011;34485;51.536;3.816;2023-11-22T13:47:48;13.32;;;9.30;;
48685;SDS011;34485;51.536;3.816;2023-11-22T13:50:28;14.13;;;10.38;;
48685;SDS011;34485;51.536;3.816;2023-11-22T13:52:54;14.52;;;9.70;;
48685;SDS011;34485;51.536;3.816;2023-11-22T13:55:21;13.50;;;10.20;;
48685;SDS011;34485;51.536;3.816;2023-11-22T13:57:59;16.60;;;9.90;;
48685;SDS011;34485;51.536;3.816;2023-11-22T14:00:26;16.15;;;11.27;;
48685;SDS011;34485;51.536;3.816;2023-11-22T14:02:57;16.65;;;9.25;;
48685;SDS011;34485;51.536;3.816;2023-11-22T14:05:30;16.10;;;11.30;;
48685;SDS011;34485;51.536;3.816;2023-11-22T14:07:58;18.73;;;11.95;;
48685;SDS011;34485;51.536;3.816;2023-11-22T14:10:24;16.63;;;10.90;;
48685;SDS011;34485;51.536;3.816;2023-11-22T14:12:50;26.38;;;13.95;;
48685;SDS011;34485;51.536;3.816;2023-11-22T14:15:16;19.70;;;11.27;;
48685;SDS011;34485;51.536;3.816;2023-11-22T14:17:42;21.95;;;13.57;;
48685;SDS011;34485;51.536;3.816;2023-11-22T14:20:11;25.30;;;15.23;;
48685;SDS011;34485;51.536;3.816;2023-11-22T14:22:38;35.65;;;19.35;;
48685;SDS011;34485;51.536;3.816;2023-11-22T14:25:05;25.88;;;15.60;;
48685;SDS011;34485;51.536;3.816;2023-11-22T14:27:36;20.50;;;12.00;;
48685;SDS011;34485;51.536;3.816;2023-11-22T14:30:02;20.33;;;12.18;;
48685;SDS011;34485;51.536;3.816;2023-11-22T14:32:32;22.90;;;12.35;;
48685;SDS011;34485;51.536;3.816;2023-11-22T14:34:59;19.02;;;12.30;;
48685;SDS011;34485;51.536;3.816;2023-11-22T14:37:26;20.25;;;12.65;;
48685;SDS011;34485;51.536;3.816;2023-11-22T14:39:53;28.67;;;15.67;;
48685;SDS011;34485;51.536;3.816;2023-11-22T14:42:19;23.08;;;13.80;;
48685;SDS011;34485;51.536;3.816;2023-11-22T14:44:45;25.10;;;14.68;;
48685;SDS011;34485;51.536;3.816;2023-11-22T14:47:12;21.42;;;13.70;;
48685;SDS011;34485;51.536;3.816;2023-11-22T14:49:41;22.13;;;14.63;;
48685;SDS011;34485;51.536;3.816;2023-11-22T14:52:08;23.80;;;14.00;;
48685;SDS011;34485;51.536;3.816;2023-11-22T14:57:03;30.92;;;16.77;;